KCKB/CKB METAR and TAF weather

Enter ICAO airport designator
Station Type Date Time Source
KCKB METAR 2018/12/12 23:53 UTC NOAA

KCKB 122353Z 19003KT 10SM OVC060 08/M04 A3000 RMK AO2 SLP161 T00781044 10078 20061 55005


Station Type Date Time Source
KCKB Decoded METAR 2018/12/12 23:53 UTC NOAA

HARRISON/MARION REGIONAL, WV, United States (KCKB) 39-18N 080-13W 360M
Dec 12, 2018 - 06:53 PM EST / 2018.12.12 2353 UTC
Wind: from the S (190 degrees) at 3 MPH (3 KT):0
Visibility: 10 mile(s):0
Sky conditions: overcast
Temperature: 46.0 F (7.8 C)
Dew Point: 24.1 F (-4.4 C)
Relative Humidity: 41%
Pressure (altimeter): 30 in. Hg (1015 hPa)
Pressure tendency: 0.01 inches (0.5 hPa) lower than three hours ago
ob: KCKB 122353Z 19003KT 10SM OVC060 08/M04 A3000 RMK AO2 SLP161 T00781044 10078 20061 55005
cycle: 0

Station Type Date Time Source
KCKB TAF 2018/12/12 19:18 UTC NOAA

TAF
AMD KCKB 121916Z 1219/1318 20008KT P6SM BKN250
FM122300 18006G16KT P6SM BKN080
FM130300 VRB03KT P6SM BKN035
FM130700 VRB03KT P6SM BKN025
FM131100 VRB03KT P6SM BKN015


Example: see airport list